CST,Max TemperatureF,Mean TemperatureF,Min TemperatureF,Max Dew PointF,MeanDew PointF,Min DewpointF,Max Humidity, Mean Humidity, Min Humidity, Max Sea Level PressureIn, Mean Sea Level PressureIn, Min Sea Level PressureIn, Max VisibilityMiles, Mean VisibilityMiles, Min VisibilityMiles, Max Wind SpeedMPH, Mean Wind SpeedMPH, Max Gust SpeedMPH,PrecipitationIn, CloudCover, Events, WindDirDegrees
2011-11-1,64,50,36,43,37,32,89,64,41,30.15,30.08,30.00,10,8,4,15,8,23,0.00,0,,185
2011-11-2,62,52,42,46,40,36,89,61,44,30.08,30.02,29.97,10,9,2,16,13,26,0.07,4,Rain,252
2011-11-3,46,44,42,41,39,34,89,79,68,30.22,30.09,30.04,10,7,2,29,15,36,0.52,7,Rain,35
2011-11-4,51,41,30,35,32,30,96,77,48,30.36,30.30,30.24,10,10,3,10,6,,0.00,0,,58
2011-11-5,55,42,30,38,32,26,93,68,45,30.30,30.20,30.05,10,8,0,13,6,20,0.00,0,Fog,171
2011-11-6,59,50,44,46,41,30,77,66,56,30.08,30.01,29.95,10,8,5,20,12,34,0.00,4,,198
2011-11-7,57,51,45,45,38,29,86,65,33,30.23,30.19,30.11,10,8,4,7,3,,0.00,7,,231
2011-11-8,48,46,44,45,42,37,93,88,74,30.19,30.05,29.91,10,5,1,20,10,26,0.60,8,Rain,32
2011-11-9,48,41,34,46,40,29,93,89,79,29.94,29.75,29.48,10,5,1,28,13,36,0.47,7,Rain,351
2011-11-10,37,34,30,32,29,26,87,78,70,30.02,29.95,29.92,10,7,1,15,11,26,0.01,6,Snow,277
2011-11-11,43,36,28,29,26,23,85,69,47,30.01,29.88,29.73,10,10,7,16,8,23,0.00,2,,216
2011-11-12,57,46,35,45,35,30,82,63,45,29.78,29.69,29.52,10,10,7,23,11,33,0.00,0,,211
2011-11-13,66,56,46,51,44,31,77,65,41,29.59,29.44,29.26,10,10,10,24,18,38,0.00,4,,219
2011-11-14,51,44,36,40,36,31,82,73,63,29.73,29.63,29.56,10,9,6,9,6,,0.00,2,Rain,217
2011-11-15,61,46,30,36,32,29,92,59,37,29.85,29.75,29.67,10,9,5,20,7,30,0.00,0,,240
2011-11-16,41,34,27,27,16,9,64,49,29,30.14,30.04,29.88,10,10,10,23,12,32,0.00,0,,278
2011-11-17,34,28,23,15,13,10,69,55,40,30.23,30.17,30.10,10,10,9,21,10,33,0.00,0,,257
2011-11-18,51,38,25,20,17,14,63,39,26,30.18,29.97,29.85,10,10,10,26,14,40,0.00,0,,201
2011-11-19,55,48,42,48,35,21,75,58,42,29.89,29.80,29.70,10,8,4,21,15,28,0.00,6,Rain,211
2011-11-20,48,40,33,41,31,27,82,74,65,30.35,30.20,29.88,10,8,4,22,12,33,0.00,7,,5
2011-11-21,42,38,34,34,32,28,92,77,70,30.36,30.30,30.23,10,8,4,9,7,,0.00,6,,59
2011-11-22,42,40,39,36,35,33,87,80,70,30.20,30.01,29.90,7,5,2,17,12,24,0.06,7,Rain,40
2011-11-23,46,38,30,36,33,28,96,85,66,30.22,30.16,30.04,6,3,0,12,6,20,0.00,3,Fog,268
2011-11-24,46,42,37,41,39,36,93,84,76,30.20,30.11,30.00,6,3,1,17,13,26,0.00,6,,222
2011-11-25,55,48,42,45,40,36,82,73,62,29.99,29.91,29.85,10,6,4,21,13,26,0.00,1,,214
2011-11-26,53,50,46,50,48,43,96,86,71,29.87,29.80,29.75,10,4,0,15,10,22,0.39,8,Fog-Rain,221
2011-11-27,45,40,34,43,34,26,93,81,70,30.17,29.94,29.76,10,7,2,16,11,25,0.18,8,Rain,329
2011-11-28,36,33,30,29,26,25,82,75,72,30.19,30.11,29.99,10,8,5,12,7,,0.00,7,,346
2011-11-29,41,34,28,33,26,18,79,67,56,30.02,29.99,29.95,10,9,6,28,17,41,0.00,5,,2
2011-11-30,44,32,21,20,15,4,78,52,20,30.15,30.07,29.99,10,10,10,12,8,,0.00,0,,264